Time;durP1;ratioP1;P1;durP2;ratioP2;P2;SDS_P1;SDS_P2;PMS_P1;PMS_P2;Temp;Humidity;BMP_temperature;BMP_pressure;BME280_temperature;BME280_humidity;BME280_pressure;Samples;Min_cycle;Max_cycle;Signal;HPM_P1;HPM_P2
2023/08/01 00:01:04;;;;;;;6.88;2.88;;;19.10;99.90;;;;;;8381233;28;20040;-79
2023/08/01 00:05:05;;;;;;;5.13;2.80;;;19.10;99.90;;;;;;8348972;28;20561;-79
2023/08/01 00:09:05;;;;;;;6.60;3.10;;;19.00;99.90;;;;;;8349728;28;20051;-79
2023/08/01 00:13:07;;;;;;;5.22;2.95;;;19.00;99.90;;;;;;8357026;28;20043;-80
2023/08/01 00:17:07;;;;;;;6.68;3.00;;;19.00;99.90;;;;;;8352889;28;20025;-80
2023/08/01 00:21:11;;;;;;;4.18;3.03;;;19.00;99.90;;;;;;8350731;28;20063;-79
2023/08/01 00:25:11;;;;;;;4.22;2.80;;;19.10;99.90;;;;;;8357502;28;20105;-79
2023/08/01 00:29:12;;;;;;;4.80;2.83;;;19.20;99.90;;;;;;8366698;28;20034;-79
2023/08/01 00:33:13;;;;;;;5.78;2.80;;;19.10;99.90;;;;;;8335163;28;20039;-80
2023/08/01 00:37:13;;;;;;;5.05;2.80;;;19.00;99.90;;;;;;8384254;28;20027;-80
2023/08/01 00:41:14;;;;;;;6.05;2.75;;;19.00;99.90;;;;;;8358436;28;20117;-79
2023/08/01 00:45:14;;;;;;;6.55;3.20;;;18.90;99.90;;;;;;8376492;28;20035;-79
2023/08/01 00:49:15;;;;;;;6.30;2.80;;;18.90;99.90;;;;;;8365243;28;20025;-79
2023/08/01 00:53:17;;;;;;;6.90;3.20;;;18.70;99.90;;;;;;8383184;28;20028;-79
2023/08/01 00:57:18;;;;;;;7.53;3.22;;;18.70;99.90;;;;;;8357682;28;20021;-80
2023/08/01 01:01:19;;;;;;;5.57;2.95;;;18.70;99.90;;;;;;8346329;28;20037;-80
2023/08/01 01:05:23;;;;;;;7.00;3.38;;;18.90;99.90;;;;;;8373458;28;20075;-80
2023/08/01 01:09:23;;;;;;;4.45;3.22;;;18.90;99.90;;;;;;8332659;28;20024;-80
2023/08/01 01:13:24;;;;;;;6.63;2.95;;;18.90;99.90;;;;;;8369458;28;20025;-80
2023/08/01 01:17:24;;;;;;;5.53;2.97;;;18.90;99.90;;;;;;8359755;28;20036;-80
2023/08/01 01:21:25;;;;;;;4.47;3.03;;;18.90;99.90;;;;;;8369142;28;20488;-79
2023/08/01 01:25:27;;;;;;;4.63;2.72;;;18.80;99.90;;;;;;8362442;28;20373;-80
2023/08/01 01:29:29;;;;;;;4.53;3.13;;;18.70;99.90;;;;;;8359537;28;20030;-79
2023/08/01 01:33:30;;;;;;;5.70;3.35;;;18.70;99.90;;;;;;8346132;28;20029;-78
2023/08/01 01:37:30;;;;;;;6.93;3.50;;;18.70;99.90;;;;;;8393314;28;20443;-79
2023/08/01 01:41:31;;;;;;;4.22;3.17;;;18.50;99.90;;;;;;8362878;28;20038;-79
2023/08/01 01:45:31;;;;;;;5.90;3.20;;;18.00;99.90;;;;;;8361713;28;20032;-79
2023/08/01 01:49:32;;;;;;;8.30;4.05;;;17.90;99.90;;;;;;8347583;28;20079;-79
2023/08/01 01:53:32;;;;;;;8.85;3.90;;;17.80;99.90;;;;;;8354195;28;20044;-79
2023/08/01 01:57:36;;;;;;;7.05;4.20;;;17.60;99.90;;;;;;8364913;28;20029;-78
2023/08/01 02:01:36;;;;;;;7.40;3.95;;;17.40;99.90;;;;;;8374606;28;20452;-79
2023/08/01 02:05:37;;;;;;;10.63;4.60;;;17.20;99.90;;;;;;8346256;28;20026;-78
2023/08/01 02:09:37;;;;;;;9.48;4.05;;;17.10;99.90;;;;;;8346936;28;20028;-79
2023/08/01 02:13:38;;;;;;;12.07;4.85;;;16.80;99.90;;;;;;8359816;28;20029;-78
2023/08/01 02:17:39;;;;;;;9.20;4.78;;;16.60;99.90;;;;;;8385282;28;20024;-78
2023/08/01 02:21:39;;;;;;;7.75;4.28;;;16.50;99.90;;;;;;8354284;28;20021;-77
2023/08/01 02:25:41;;;;;;;6.78;4.50;;;16.60;99.90;;;;;;8365901;28;20055;-78
2023/08/01 02:29:41;;;;;;;7.28;4.43;;;16.80;99.90;;;;;;8347335;28;20029;-78
2023/08/01 02:33:42;;;;;;;8.25;4.53;;;16.50;99.90;;;;;;8367624;28;20033;-78
2023/08/01 02:37:42;;;;;;;9.70;4.32;;;16.40;99.90;;;;;;8369830;28;20037;-78
2023/08/01 02:41:43;;;;;;;6.63;4.40;;;16.10;99.90;;;;;;8353202;28;20116;-78
2023/08/01 02:45:44;;;;;;;8.27;4.70;;;16.50;99.90;;;;;;8359807;28;20043;-78
2023/08/01 02:49:44;;;;;;;9.93;5.28;;;16.70;99.90;;;;;;8353995;28;20061;-79
2023/08/01 02:53:45;;;;;;;7.65;4.80;;;16.30;99.90;;;;;;8364433;28;20025;-80
2023/08/01 02:57:45;;;;;;;9.60;5.00;;;16.20;99.90;;;;;;8348054;28;20645;-80
2023/08/01 03:01:46;;;;;;;15.25;4.70;;;16.00;99.90;;;;;;8351443;28;20046;-79
2023/08/01 03:05:47;;;;;;;10.15;5.50;;;16.30;99.90;;;;;;8338435;28;20059;-79
2023/08/01 03:09:48;;;;;;;11.75;5.25;;;16.10;99.90;;;;;;8366609;28;20018;-79
2023/08/01 03:13:48;;;;;;;8.68;5.13;;;16.00;99.90;;;;;;8365871;28;20549;-79
2023/08/01 03:17:49;;;;;;;10.00;5.97;;;16.00;99.90;;;;;;8352680;28;20096;-79
2023/08/01 03:21:49;;;;;;;9.25;5.55;;;15.90;99.90;;;;;;8357613;28;20600;-79
2023/08/01 03:25:50;;;;;;;7.60;5.38;;;16.00;99.90;;;;;;8328297;28;20033;-79
2023/08/01 03:29:50;;;;;;;9.27;5.63;;;16.00;99.90;;;;;;8375799;28;20032;-79
2023/08/01 03:33:51;;;;;;;11.75;6.28;;;16.20;99.90;;;;;;8377765;28;20079;-79
2023/08/01 03:37:51;;;;;;;11.85;5.75;;;16.30;99.90;;;;;;8368821;28;20021;-79
2023/08/01 03:41:52;;;;;;;10.73;6.18;;;16.10;99.90;;;;;;8344228;28;20028;-79
2023/08/01 03:45:52;;;;;;;12.05;5.93;;;16.00;99.90;;;;;;8357183;28;20492;-79
2023/08/01 03:49:53;;;;;;;9.70;6.50;;;16.00;99.90;;;;;;8366019;28;20035;-79
2023/08/01 03:53:53;;;;;;;13.60;6.30;;;15.90;99.90;;;;;;8390237;28;20036;-79
2023/08/01 03:57:54;;;;;;;9.15;5.47;;;16.00;99.90;;;;;;8375757;28;20067;-80
2023/08/01 04:01:54;;;;;;;7.68;4.85;;;16.00;99.90;;;;;;8353769;28;20674;-80
2023/08/01 04:05:55;;;;;;;10.85;5.88;;;16.20;99.90;;;;;;8341746;28;20085;-79
2023/08/01 04:09:56;;;;;;;11.18;5.63;;;16.20;99.90;;;;;;8357914;28;20035;-79
2023/08/01 04:13:56;;;;;;;10.13;5.85;;;16.10;99.90;;;;;;8350090;28;20077;-80
2023/08/01 04:17:57;;;;;;;9.63;5.35;;;16.20;99.90;;;;;;8378347;28;20103;-79
2023/08/01 04:21:57;;;;;;;11.05;5.47;;;16.20;99.90;;;;;;8375493;28;20048;-79
2023/08/01 04:25:59;;;;;;;12.05;5.65;;;16.20;99.90;;;;;;8372406;28;20500;-79
2023/08/01 04:29:59;;;;;;;6.97;5.32;;;16.30;99.90;;;;;;8355703;28;20032;-79
2023/08/01 04:34:00;;;;;;;9.25;5.07;;;16.30;99.90;;;;;;8350019;28;20029;-79
2023/08/01 04:38:01;;;;;;;8.95;4.88;;;16.40;99.90;;;;;;8346505;28;20020;-78
2023/08/01 04:42:01;;;;;;;8.50;4.90;;;16.40;99.90;;;;;;8369521;28;20097;-79
2023/08/01 04:46:02;;;;;;;9.50;5.28;;;16.50;99.90;;;;;;8384261;28;20032;-77
2023/08/01 04:50:03;;;;;;;7.68;5.00;;;16.70;99.90;;;;;;8358410;28;20035;-78
2023/08/01 04:54:03;;;;;;;9.25;4.88;;;16.80;99.90;;;;;;8359606;28;20078;-78
2023/08/01 04:58:04;;;;;;;7.25;4.72;;;16.90;99.90;;;;;;8341004;28;20504;-78
2023/08/01 05:02:04;;;;;;;6.70;4.72;;;16.90;99.90;;;;;;8358278;28;20111;-78
2023/08/01 05:06:05;;;;;;;8.90;5.30;;;17.10;99.90;;;;;;8344701;28;20037;-78
2023/08/01 05:10:06;;;;;;;7.28;5.07;;;17.20;99.90;;;;;;8352075;28;20118;-78
2023/08/01 05:14:06;;;;;;;9.75;5.28;;;17.10;99.90;;;;;;8351457;28;20089;-77
2023/08/01 05:18:07;;;;;;;7.97;5.05;;;17.00;99.90;;;;;;8373132;28;20431;-79
2023/08/01 05:22:07;;;;;;;9.65;4.68;;;16.90;99.90;;;;;;8387350;28;20028;-79
2023/08/01 05:26:08;;;;;;;10.93;5.00;;;16.70;99.90;;;;;;8387261;28;20029;-79
2023/08/01 05:30:09;;;;;;;10.30;5.03;;;16.70;99.90;;;;;;8370164;28;20032;-80
2023/08/01 05:34:09;;;;;;;8.07;4.72;;;16.60;99.90;;;;;;8366119;28;20021;-80
2023/08/01 05:38:10;;;;;;;6.82;4.57;;;16.60;99.90;;;;;;8390965;28;20553;-80
2023/08/01 05:42:10;;;;;;;6.68;4.18;;;16.50;99.90;;;;;;8372299;28;20025;-79
2023/08/01 05:46:11;;;;;;;7.85;4.45;;;16.40;99.90;;;;;;8359216;28;20090;-78
2023/08/01 05:50:12;;;;;;;8.45;4.70;;;16.50;99.90;;;;;;8361941;28;20486;-78
2023/08/01 05:54:12;;;;;;;8.63;4.63;;;16.50;99.90;;;;;;8368539;28;20029;-78
2023/08/01 05:58:13;;;;;;;9.85;4.43;;;16.50;99.90;;;;;;8368642;28;20446;-76
2023/08/01 06:02:13;;;;;;;4.10;2.58;;;16.60;99.90;;;;;;8370994;28;20090;-77
2023/08/01 06:06:14;;;;;;;5.90;3.38;;;16.70;99.90;;;;;;8375197;28;20035;-78
2023/08/01 06:10:15;;;;;;;5.28;3.53;;;17.00;99.90;;;;;;8361495;28;20032;-78
2023/08/01 06:14:16;;;;;;;6.28;3.22;;;17.00;99.90;;;;;;8367568;28;20060;-77
2023/08/01 06:18:16;;;;;;;5.35;2.95;;;17.00;99.90;;;;;;8361608;28;20108;-79
2023/08/01 06:22:17;;;;;;;9.82;3.65;;;17.00;99.90;;;;;;8348441;28;20028;-79
2023/08/01 06:26:17;;;;;;;7.32;3.42;;;16.90;99.90;;;;;;8355138;28;20024;-79
2023/08/01 06:30:18;;;;;;;5.90;3.63;;;16.70;99.90;;;;;;8371306;28;20063;-80
2023/08/01 06:34:19;;;;;;;6.57;3.50;;;16.40;99.90;;;;;;8368963;28;20025;-79
2023/08/01 06:38:19;;;;;;;7.53;3.72;;;16.30;99.90;;;;;;8366731;28;20017;-78
2023/08/01 06:42:20;;;;;;;6.03;3.40;;;16.40;99.90;;;;;;8357004;28;20388;-79
2023/08/01 06:46:20;;;;;;;4.78;3.17;;;16.40;99.90;;;;;;8368218;28;20098;-78
2023/08/01 06:50:21;;;;;;;7.15;4.03;;;16.60;99.90;;;;;;8360080;28;20078;-79
2023/08/01 06:54:21;;;;;;;6.50;3.58;;;17.00;99.90;;;;;;8367991;28;20031;-79
2023/08/01 06:58:22;;;;;;;5.78;3.33;;;17.30;99.90;;;;;;8368893;28;20029;-80
2023/08/01 07:02:22;;;;;;;5.78;3.15;;;17.40;99.90;;;;;;8361958;28;20104;-78
2023/08/01 07:06:24;;;;;;;5.97;2.92;;;17.40;99.90;;;;;;8365776;28;20032;-77
2023/08/01 07:10:25;;;;;;;4.60;3.00;;;17.40;99.90;;;;;;8373353;28;20729;-77
2023/08/01 07:14:25;;;;;;;3.95;2.85;;;17.30;99.90;;;;;;8365931;28;20036;-78
2023/08/01 07:18:26;;;;;;;5.47;3.00;;;17.30;99.90;;;;;;8378193;28;20403;-78
2023/08/01 07:22:26;;;;;;;5.88;2.95;;;17.40;99.90;;;;;;8366653;28;20109;-78
2023/08/01 07:26:28;;;;;;;4.57;2.70;;;17.40;99.90;;;;;;8348231;28;20481;-79
2023/08/01 07:30:29;;;;;;;4.63;2.80;;;17.60;99.90;;;;;;8372092;28;20025;-77
2023/08/01 07:34:29;;;;;;;5.30;2.78;;;17.50;99.90;;;;;;8385049;28;20032;-78
2023/08/01 07:38:33;;;;;;;7.30;2.90;;;17.40;99.90;;;;;;8372877;28;20025;-79
2023/08/01 07:42:33;;;;;;;8.90;3.30;;;17.50;99.90;;;;;;8365221;28;20075;-79
2023/08/01 07:46:34;;;;;;;4.43;2.75;;;17.50;99.90;;;;;;8390897;28;20196;-77
2023/08/01 07:50:34;;;;;;;5.40;2.67;;;17.50;99.90;;;;;;8372594;28;20036;-78
2023/08/01 07:54:35;;;;;;;5.28;2.78;;;17.50;99.90;;;;;;8366182;28;20035;-78
2023/08/01 07:58:36;;;;;;;5.15;2.85;;;17.40;99.90;;;;;;8372415;28;20025;-78
2023/08/01 08:02:36;;;;;;;5.65;2.70;;;17.70;99.90;;;;;;8357949;28;20027;-78
2023/08/01 08:06:37;;;;;;;6.88;2.88;;;17.80;99.90;;;;;;8338715;28;20089;-78
2023/08/01 08:10:37;;;;;;;5.43;3.55;;;17.80;99.90;;;;;;8338178;28;20029;-78
2023/08/01 08:14:38;;;;;;;6.75;3.45;;;17.60;99.90;;;;;;8388077;28;20025;-79
2023/08/01 08:18:38;;;;;;;5.82;3.55;;;17.30;99.90;;;;;;8382993;28;20035;-79
2023/08/01 08:22:39;;;;;;;5.95;2.95;;;17.20;99.90;;;;;;8358746;28;20022;-78
2023/08/01 08:26:39;;;;;;;6.07;3.47;;;17.30;99.90;;;;;;8364637;28;20107;-79
2023/08/01 08:30:40;;;;;;;11.15;3.38;;;17.60;99.90;;;;;;8378133;28;20044;-78
2023/08/01 08:34:40;;;;;;;6.85;3.50;;;18.10;99.90;;;;;;8365153;28;20086;-79
2023/08/01 08:38:41;;;;;;;5.68;3.25;;;18.20;99.90;;;;;;8371195;28;20020;-78
2023/08/01 08:42:44;;;;;;;7.03;3.55;;;18.60;99.90;;;;;;8393550;28;20384;-79
2023/08/01 08:46:51;;;;;;;5.20;2.58;;;18.80;99.90;;;;;;8342720;28;20035;-78
2023/08/01 08:50:52;;;;;;;6.28;3.05;;;19.30;99.90;;;;;;8375784;28;20031;-79
2023/08/01 08:54:54;;;;;;;8.65;3.80;;;19.40;99.90;;;;;;8352506;28;20019;-79
2023/08/01 08:58:56;;;;;;;5.82;3.30;;;18.50;99.90;;;;;;8364099;28;20369;-79
2023/08/01 09:02:56;;;;;;;5.88;3.65;;;17.90;99.90;;;;;;8363453;28;20112;-79
2023/08/01 09:07:02;;;;;;;7.03;3.33;;;17.60;99.90;;;;;;8363213;28;20522;-78
2023/08/01 09:11:04;;;;;;;7.22;3.65;;;17.40;99.90;;;;;;8343260;28;20074;-79
2023/08/01 09:15:05;;;;;;;6.57;4.05;;;16.90;99.90;;;;;;8375698;28;20016;-80
2023/08/01 09:19:06;;;;;;;7.38;4.35;;;16.60;99.90;;;;;;8384811;28;20168;-79
2023/08/01 09:23:09;;;;;;;9.73;4.28;;;16.50;99.90;;;;;;8389722;28;20020;-78
2023/08/01 09:27:09;;;;;;;8.57;4.60;;;16.50;99.90;;;;;;8362898;28;20024;-78
2023/08/01 09:31:11;;;;;;;8.73;4.38;;;16.50;99.90;;;;;;8376027;28;20027;-79
2023/08/01 09:35:11;;;;;;;8.15;4.28;;;16.40;99.90;;;;;;8356898;28;20021;-79
2023/08/01 09:39:17;;;;;;;8.05;4.00;;;16.40;99.90;;;;;;8362963;28;20027;-79
2023/08/01 09:43:18;;;;;;;7.30;3.80;;;16.40;99.90;;;;;;8360952;28;20025;-79
2023/08/01 09:47:20;;;;;;;7.25;4.00;;;16.20;99.90;;;;;;8362881;28;20407;-79
2023/08/01 09:51:21;;;;;;;7.32;3.97;;;16.10;99.90;;;;;;8362800;28;20021;-79
2023/08/01 09:55:32;;;;;;;5.18;2.88;;;16.10;99.90;;;;;;8371134;28;20494;-78
2023/08/01 09:59:33;;;;;;;5.47;3.28;;;16.20;99.90;;;;;;8362520;28;20021;-79
2023/08/01 10:03:34;;;;;;;5.25;3.22;;;16.30;99.90;;;;;;8368628;28;20025;-79
2023/08/01 10:07:38;;;;;;;4.78;3.22;;;16.50;99.90;;;;;;8355607;28;20031;-78
2023/08/01 10:11:40;;;;;;;4.35;2.92;;;16.90;99.90;;;;;;8373326;28;20032;-78
2023/08/01 10:15:41;;;;;;;4.40;2.50;;;17.10;99.90;;;;;;8367132;28;20096;-79
2023/08/01 10:19:42;;;;;;;5.88;2.70;;;16.80;99.90;;;;;;8375489;28;20073;-79
2023/08/01 10:23:44;;;;;;;4.63;2.85;;;16.60;99.90;;;;;;8367015;28;20092;-79
2023/08/01 10:27:45;;;;;;;5.43;2.75;;;16.50;99.90;;;;;;8355147;28;20026;-78
2023/08/01 10:31:55;;;;;;;5.18;2.92;;;16.70;99.90;;;;;;8374661;28;20027;-77
2023/08/01 10:35:55;;;;;;;4.63;2.80;;;16.90;99.90;;;;;;8363177;28;20025;-79
2023/08/01 10:39:58;;;;;;;4.43;3.00;;;16.90;99.90;;;;;;8369645;28;20120;-79
2023/08/01 10:44:30;;;;;;;5.28;2.95;;;16.90;99.90;;;;;;8374013;28;20392;-78
2023/08/01 10:48:31;;;;;;;7.35;3.60;;;16.50;99.90;;;;;;8383863;22;20047;-82
2023/08/01 10:52:33;;;;;;;5.07;3.35;;;16.60;99.90;;;;;;8430473;28;20070;-81
2023/08/01 10:56:35;;;;;;;6.00;3.38;;;16.50;99.90;;;;;;8436499;28;20027;-79
2023/08/01 11:00:35;;;;;;;4.63;3.05;;;17.00;99.90;;;;;;8429969;28;20109;-80
2023/08/01 11:04:36;;;;;;;4.72;3.10;;;17.80;99.90;;;;;;8440705;28;20023;-78
2023/08/01 11:08:41;;;;;;;4.10;2.75;;;18.70;99.90;;;;;;8440392;28;20051;-80
2023/08/01 11:12:43;;;;;;;4.38;3.10;;;19.60;99.90;;;;;;8434015;28;20028;-80
2023/08/01 11:16:44;;;;;;;6.00;3.22;;;20.50;99.90;;;;;;8457402;28;20446;-78
2023/08/01 11:20:45;;;;;;;3.92;2.95;;;20.50;99.90;;;;;;8423979;28;20395;-80
2023/08/01 11:24:50;;;;;;;3.22;2.22;;;20.20;99.90;;;;;;8437075;28;20015;-80
2023/08/01 11:28:51;;;;;;;4.60;2.78;;;20.40;99.90;;;;;;8425207;28;20025;-80
2023/08/01 11:32:51;;;;;;;5.35;3.33;;;19.90;99.90;;;;;;8424866;28;20335;-81
2023/08/01 11:36:52;;;;;;;7.88;3.60;;;19.20;99.90;;;;;;8424570;28;20105;-80
2023/08/01 11:40:53;;;;;;;4.53;3.22;;;18.60;99.90;;;;;;8423801;28;20020;-81
2023/08/01 11:44:54;;;;;;;4.82;2.90;;;19.90;99.90;;;;;;8440159;28;20076;-80
2023/08/01 11:48:54;;;;;;;3.58;2.92;;;21.20;99.90;;;;;;8433908;28;20023;-78
2023/08/01 11:52:55;;;;;;;4.20;3.10;;;21.90;99.90;;;;;;8448262;28;20031;-80
2023/08/01 11:57:01;;;;;;;4.65;3.45;;;21.80;99.90;;;;;;8453996;28;20031;-80
2023/08/01 12:01:12;;;;;;;4.05;2.55;;;21.40;99.90;;;;;;8427637;28;20092;-81
2023/08/01 12:05:21;;;;;;;4.72;3.10;;;20.50;99.90;;;;;;8452364;28;20031;-80
2023/08/01 12:09:22;;;;;;;3.90;2.90;;;20.50;99.90;;;;;;8462764;28;20020;-80
2023/08/01 12:13:24;;;;;;;3.92;2.70;;;22.40;99.90;;;;;;8437125;28;20051;-79
2023/08/01 12:17:25;;;;;;;3.63;2.30;;;21.90;99.90;;;;;;8432204;28;20613;-81
2023/08/01 12:21:26;;;;;;;3.83;2.63;;;21.30;99.90;;;;;;8434075;28;20445;-80
2023/08/01 12:25:26;;;;;;;4.38;2.50;;;22.40;99.90;;;;;;8437432;28;20087;-79
2023/08/01 12:29:27;;;;;;;4.82;2.53;;;25.50;99.90;;;;;;8431987;28;20468;-80
2023/08/01 12:33:27;;;;;;;4.45;2.85;;;25.60;99.90;;;;;;8458687;28;20024;-81
2023/08/01 12:37:28;;;;;;;3.70;2.33;;;25.80;99.90;;;;;;8449575;28;20474;-79
2023/08/01 12:41:29;;;;;;;3.20;2.50;;;25.10;99.90;;;;;;8430698;28;20015;-78
2023/08/01 12:45:29;;;;;;;3.97;2.78;;;22.80;99.90;;;;;;8454051;28;20065;-78
2023/08/01 12:49:30;;;;;;;4.85;2.40;;;21.40;99.90;;;;;;8437762;28;20028;-78
2023/08/01 12:53:30;;;;;;;4.13;2.38;;;20.60;99.90;;;;;;8430793;28;20030;-79
2023/08/01 12:57:31;;;;;;;3.30;2.35;;;20.00;99.90;;;;;;8456137;28;20008;-80
2023/08/01 13:01:31;;;;;;;4.65;1.90;;;19.60;99.90;;;;;;8437111;28;20023;-78
2023/08/01 13:05:34;;;;;;;4.47;2.70;;;19.40;99.90;;;;;;8432167;28;20498;-80
2023/08/01 13:09:35;;;;;;;10.05;3.55;;;18.70;99.90;;;;;;8454303;28;20051;-79
2023/08/01 13:13:35;;;;;;;6.97;2.70;;;18.00;99.90;;;;;;8453111;28;20430;-81
2023/08/01 13:17:36;;;;;;;5.75;2.97;;;17.60;99.90;;;;;;8435705;28;20081;-79
2023/08/01 13:21:36;;;;;;;5.15;3.30;;;17.40;99.90;;;;;;8435397;28;20020;-79
2023/08/01 13:25:37;;;;;;;5.93;3.20;;;17.30;99.90;;;;;;8436797;28;20020;-77
2023/08/01 13:29:39;;;;;;;4.50;2.70;;;17.10;99.90;;;;;;8425318;28;20028;-82
2023/08/01 13:33:39;;;;;;;5.75;2.10;;;17.50;99.90;;;;;;8419190;28;20030;-83
2023/08/01 13:37:40;;;;;;;2.83;1.50;;;19.30;99.90;;;;;;8426598;28;20063;-83
2023/08/01 13:41:40;;;;;;;1.75;0.88;;;21.70;99.90;;;;;;8413795;28;20027;-84
2023/08/01 13:45:41;;;;;;;3.10;1.27;;;20.90;99.90;;;;;;8423446;28;20062;-83
2023/08/01 13:49:42;;;;;;;2.15;0.90;;;19.50;99.90;;;;;;8419164;28;20047;-84
2023/08/01 13:53:42;;;;;;;1.85;0.70;;;18.70;99.90;;;;;;8434319;28;20028;-85
2023/08/01 13:57:43;;;;;;;1.70;0.50;;;17.90;99.90;;;;;;8397512;28;20028;-84
2023/08/01 14:01:43;;;;;;;4.22;0.55;;;16.90;99.90;;;;;;8422845;28;20032;-83
2023/08/01 14:05:44;;;;;;;2.53;0.63;;;16.40;99.90;;;;;;8450537;28;20024;-82
2023/08/01 14:09:44;;;;;;;1.25;0.75;;;15.90;99.90;;;;;;8430978;28;20020;-84
2023/08/01 14:13:45;;;;;;;2.25;1.08;;;15.60;99.90;;;;;;8443198;28;20047;-83
2023/08/01 14:17:45;;;;;;;4.05;1.10;;;15.70;99.90;;;;;;8418648;28;20064;-83
2023/08/01 14:21:46;;;;;;;1.30;0.95;;;15.80;99.90;;;;;;8419058;28;20026;-83
2023/08/01 14:25:47;;;;;;;0.70;0.60;;;15.90;99.90;;;;;;8417531;28;20422;-85
2023/08/01 14:29:47;;;;;;;3.17;2.33;;;15.80;99.90;;;;;;8421413;28;20411;-84
2023/08/01 14:33:48;;;;;;;1.90;0.98;;;15.70;99.90;;;;;;8407999;28;20032;-84
2023/08/01 14:37:48;;;;;;;4.18;0.73;;;15.70;99.90;;;;;;8418313;28;20024;-84
2023/08/01 14:41:50;;;;;;;3.67;0.68;;;15.80;99.90;;;;;;8432010;28;20020;-84
2023/08/01 14:45:50;;;;;;;0.85;0.70;;;16.00;99.90;;;;;;8416407;28;20016;-84
2023/08/01 14:49:51;;;;;;;1.10;0.80;;;16.10;99.90;;;;;;8417054;28;20039;-83
2023/08/01 14:53:51;;;;;;;1.38;0.70;;;16.40;99.90;;;;;;8408869;28;20523;-85
2023/08/01 14:57:52;;;;;;;0.98;0.47;;;17.60;99.90;;;;;;8410546;28;20016;-84
2023/08/01 15:01:52;;;;;;;2.03;0.60;;;20.70;99.90;;;;;;8409150;28;20062;-84
2023/08/01 15:05:53;;;;;;;0.80;0.55;;;21.30;99.90;;;;;;8430410;28;20020;-84
2023/08/01 15:09:55;;;;;;;1.08;0.50;;;20.00;99.90;;;;;;8435582;28;20099;-84
2023/08/01 15:13:55;;;;;;;0.57;0.50;;;18.90;99.90;;;;;;8412793;28;20498;-83
2023/08/01 15:17:56;;;;;;;1.20;0.60;;;19.10;99.90;;;;;;8424289;28;20019;-83
2023/08/01 15:21:56;;;;;;;1.70;1.08;;;21.00;99.90;;;;;;8404509;28;20030;-84
2023/08/01 15:25:58;;;;;;;3.38;0.60;;;23.70;99.90;;;;;;8425148;28;20020;-83
2023/08/01 15:29:59;;;;;;;1.77;0.63;;;26.70;99.90;;;;;;8410844;28;20035;-85
2023/08/01 15:33:59;;;;;;;0.68;0.40;;;28.30;99.90;;;;;;8444731;28;20032;-84
2023/08/01 15:38:00;;;;;;;0.95;0.63;;;29.20;99.90;;;;;;8415276;28;20012;-84
2023/08/01 15:42:00;;;;;;;5.88;0.90;;;28.20;99.90;;;;;;8410208;28;20055;-84
2023/08/01 15:46:01;;;;;;;1.30;0.60;;;28.50;99.90;;;;;;8405726;28;20502;-83
2023/08/01 15:50:01;;;;;;;0.90;0.50;;;27.50;99.90;;;;;;8423602;28;20598;-84
2023/08/01 15:54:03;;;;;;;1.80;0.60;;;25.20;99.90;;;;;;8431866;28;20118;-83
2023/08/01 15:58:03;;;;;;;1.67;0.65;;;23.10;99.90;;;;;;8411839;28;20438;-83
2023/08/01 16:02:05;;;;;;;3.50;0.95;;;21.50;99.90;;;;;;8425608;28;20020;-83
2023/08/01 16:06:05;;;;;;;7.60;1.15;;;20.80;99.90;;;;;;8436141;28;20103;-82
2023/08/01 16:10:06;;;;;;;4.65;1.25;;;20.40;99.90;;;;;;8438239;28;20031;-83
2023/08/01 16:14:07;;;;;;;1.38;0.73;;;20.20;99.90;;;;;;8431339;28;20030;-82
2023/08/01 16:18:08;;;;;;;0.95;0.70;;;19.90;99.90;;;;;;8433718;28;20024;-83
2023/08/01 16:22:08;;;;;;;0.90;0.65;;;19.90;99.90;;;;;;8429627;28;20087;-83
2023/08/01 16:26:09;;;;;;;1.10;0.50;;;19.70;99.90;;;;;;8444820;28;20032;-83
2023/08/01 16:30:10;;;;;;;3.70;1.33;;;20.00;99.90;;;;;;8435656;28;20111;-83
2023/08/01 16:34:11;;;;;;;2.38;1.02;;;20.10;99.90;;;;;;8423109;28;20690;-83
2023/08/01 16:38:11;;;;;;;1.50;0.75;;;19.90;99.90;;;;;;8414620;28;20096;-82
2023/08/01 16:42:12;;;;;;;1.15;0.70;;;19.70;99.90;;;;;;8422992;28;20388;-81
2023/08/01 16:46:12;;;;;;;11.45;2.30;;;19.60;99.90;;;;;;8413148;28;20074;-81
2023/08/01 16:50:17;;;;;;;2.08;1.10;;;19.40;99.90;;;;;;8471516;22;20542;-79
2023/08/01 16:54:18;;;;;;;1.25;0.85;;;19.50;99.90;;;;;;8431506;28;20029;-81
2023/08/01 16:58:18;;;;;;;1.13;0.82;;;19.40;99.90;;;;;;8411556;28;20050;-80
2023/08/01 17:02:19;;;;;;;1.70;0.80;;;19.20;99.90;;;;;;8444806;28;20429;-80
2023/08/01 17:06:19;;;;;;;1.05;0.95;;;19.20;99.90;;;;;;8429785;28;20027;-80
2023/08/01 17:10:20;;;;;;;2.20;0.70;;;19.20;99.90;;;;;;8418417;28;20024;-80
2023/08/01 17:14:20;;;;;;;1.38;0.88;;;19.10;99.90;;;;;;8418326;28;20107;-80
2023/08/01 17:18:21;;;;;;;1.30;0.80;;;19.10;99.90;;;;;;8449526;28;20055;-80
2023/08/01 17:22:23;;;;;;;0.90;0.80;;;18.80;99.90;;;;;;8441412;28;20106;-80
2023/08/01 17:26:24;;;;;;;0.70;0.70;;;19.10;99.90;;;;;;8431045;28;20507;-80
2023/08/01 17:30:24;;;;;;;1.77;0.80;;;19.10;99.90;;;;;;8420982;28;20035;-81
2023/08/01 17:34:25;;;;;;;1.67;0.90;;;18.90;99.90;;;;;;8420479;28;20583;-81
2023/08/01 17:38:25;;;;;;;1.40;1.00;;;18.90;99.90;;;;;;8412358;28;20646;-80
2023/08/01 17:42:26;;;;;;;3.28;1.00;;;19.00;99.90;;;;;;8402082;28;20083;-81
2023/08/01 17:46:27;;;;;;;0.82;0.80;;;19.20;99.90;;;;;;8427779;28;20068;-81
2023/08/01 17:50:27;;;;;;;1.35;0.82;;;19.20;99.90;;;;;;8419751;28;20039;-81
2023/08/01 17:54:29;;;;;;;1.10;1.00;;;19.10;99.90;;;;;;8434760;28;20024;-81
2023/08/01 17:58:30;;;;;;;1.15;1.00;;;18.90;99.90;;;;;;8421084;28;20110;-80
2023/08/01 18:02:30;;;;;;;1.27;1.05;;;18.70;99.90;;;;;;8398152;28;20076;-81
2023/08/01 18:06:31;;;;;;;1.40;1.30;;;18.50;99.90;;;;;;8409087;28;20136;-80
2023/08/01 18:10:36;;;;;;;2.10;1.27;;;18.60;99.90;;;;;;8423608;28;20027;-82
2023/08/01 18:14:36;;;;;;;2.13;1.23;;;18.40;99.90;;;;;;8384117;28;20174;-81
2023/08/01 18:18:37;;;;;;;1.23;1.13;;;18.40;99.90;;;;;;8393731;28;20050;-81
2023/08/01 18:22:37;;;;;;;1.92;1.52;;;18.20;99.90;;;;;;8424930;28;20027;-81
2023/08/01 18:26:38;;;;;;;1.58;1.30;;;18.10;99.90;;;;;;8396530;28;20593;-81
2023/08/01 18:30:39;;;;;;;2.90;1.50;;;18.00;99.90;;;;;;8414643;28;20487;-81
2023/08/01 18:34:39;;;;;;;3.22;1.20;;;18.00;99.90;;;;;;8401934;28;20387;-81
2023/08/01 18:38:41;;;;;;;2.40;1.50;;;17.90;99.90;;;;;;8415026;28;20019;-80
2023/08/01 18:42:42;;;;;;;1.67;1.23;;;17.80;99.90;;;;;;8400407;28;20024;-81
2023/08/01 18:46:43;;;;;;;2.30;1.30;;;17.80;99.90;;;;;;8422004;28;20069;-80
2023/08/01 18:50:43;;;;;;;1.50;1.20;;;17.70;99.90;;;;;;8425138;28;20032;-79
2023/08/01 18:54:48;;;;;;;2.13;1.08;;;17.70;99.90;;;;;;8420676;28;20023;-81
2023/08/01 18:58:49;;;;;;;1.63;1.40;;;17.60;99.90;;;;;;8421301;28;20373;-80
2023/08/01 19:02:50;;;;;;;3.20;1.23;;;17.30;99.90;;;;;;8426735;28;20099;-81
2023/08/01 19:06:50;;;;;;;1.70;1.27;;;17.20;99.90;;;;;;8417483;28;20023;-80
2023/08/01 19:10:51;;;;;;;1.90;1.35;;;17.00;99.90;;;;;;8424648;28;20081;-80
2023/08/01 19:14:51;;;;;;;2.33;1.58;;;16.80;99.90;;;;;;8440966;28;20015;-81
2023/08/01 19:18:52;;;;;;;1.60;1.42;;;16.80;99.90;;;;;;8441732;28;20027;-80
2023/08/01 19:22:53;;;;;;;3.35;1.50;;;16.50;99.90;;;;;;8425420;28;20027;-80
2023/08/01 19:26:54;;;;;;;2.28;1.55;;;16.30;99.90;;;;;;8441569;28;20453;-80
2023/08/01 19:30:54;;;;;;;3.58;1.85;;;16.10;99.90;;;;;;8455143;28;20161;-80
2023/08/01 19:34:55;;;;;;;2.42;1.52;;;15.90;99.90;;;;;;8434114;28;20032;-80
2023/08/01 19:38:55;;;;;;;3.55;1.60;;;15.90;99.90;;;;;;8432236;28;20111;-81
2023/08/01 19:42:56;;;;;;;4.07;1.50;;;15.90;99.90;;;;;;8415829;28;20119;-81
2023/08/01 19:46:57;;;;;;;2.28;1.80;;;15.60;99.90;;;;;;8427467;28;20028;-80
2023/08/01 19:51:00;;;;;;;2.08;1.58;;;15.60;99.90;;;;;;8405260;28;20029;-80
2023/08/01 19:55:01;;;;;;;3.05;1.75;;;15.70;99.90;;;;;;8408018;28;20111;-80
2023/08/01 19:59:01;;;;;;;2.08;1.60;;;15.60;99.90;;;;;;8409843;28;20495;-81
2023/08/01 20:03:02;;;;;;;4.35;2.08;;;15.60;99.90;;;;;;8428843;28;20031;-81
2023/08/01 20:07:03;;;;;;;2.42;1.52;;;15.60;99.90;;;;;;8416627;28;20076;-80
2023/08/01 20:11:03;;;;;;;2.35;1.70;;;15.60;99.90;;;;;;8441995;28;20023;-81
2023/08/01 20:15:06;;;;;;;3.08;1.70;;;15.80;99.90;;;;;;8416593;28;20028;-80
2023/08/01 20:19:07;;;;;;;2.88;1.67;;;16.00;99.90;;;;;;8432611;28;20499;-80
2023/08/01 20:23:07;;;;;;;2.58;2.00;;;16.10;99.90;;;;;;8424541;28;20062;-81
2023/08/01 20:27:09;;;;;;;3.17;2.00;;;16.10;99.90;;;;;;8426254;28;20460;-81
2023/08/01 20:31:10;;;;;;;3.03;1.80;;;16.00;99.90;;;;;;8425688;28;20518;-81
2023/08/01 20:35:10;;;;;;;1.95;1.60;;;15.90;99.90;;;;;;8449767;28;20020;-81
2023/08/01 20:39:11;;;;;;;1.85;1.60;;;15.80;99.90;;;;;;8432254;28;20042;-80
2023/08/01 20:43:12;;;;;;;2.15;1.92;;;15.80;99.90;;;;;;8435203;28;20027;-80
2023/08/01 20:47:13;;;;;;;4.35;2.00;;;15.70;99.90;;;;;;8415966;28;20044;-81
2023/08/01 20:51:13;;;;;;;2.60;1.98;;;15.40;99.90;;;;;;8448091;28;20028;-80